createdAt,value
2022-07-25T00:00:12.832Z,95.10
2022-07-25T00:02:41.733Z,95.10
2022-07-25T00:05:11.450Z,95.20
2022-07-25T00:07:39.408Z,95.30
2022-07-25T00:10:09.134Z,95.30
2022-07-25T00:12:37.196Z,95.60
2022-07-25T00:15:06.293Z,95.50
2022-07-25T00:17:34.276Z,95.40
2022-07-25T00:20:02.856Z,95.80
2022-07-25T00:22:32.239Z,95.90
2022-07-25T00:25:00.223Z,96.00
2022-07-25T00:27:28.389Z,96.10
2022-07-25T00:29:56.491Z,96.20
2022-07-25T00:32:24.525Z,96.40
2022-07-25T00:34:52.697Z,96.60
2022-07-25T00:37:20.835Z,96.70
2022-07-25T00:39:50.186Z,96.70
2022-07-25T00:42:18.225Z,96.80
2022-07-25T00:44:46.429Z,96.90
2022-07-25T00:47:14.424Z,97.10
2022-07-25T00:49:42.666Z,97.40
2022-07-25T00:52:10.823Z,97.70
2022-07-25T00:54:38.854Z,97.80
2022-07-25T00:57:08.403Z,98.10
2022-07-25T00:59:36.438Z,98.20
2022-07-25T01:02:04.651Z,98.50
2022-07-25T01:04:32.810Z,98.80
2022-07-25T01:07:01.971Z,98.90
2022-07-25T01:09:30.529Z,99.10
2022-07-25T01:11:58.500Z,99.30
2022-07-25T01:14:27.993Z,99.30
2022-07-25T01:16:56.446Z,99.60
2022-07-25T01:19:24.460Z,99.80
2022-07-25T01:21:55.920Z,99.90
2022-07-25T01:24:23.901Z,99.90
2022-07-25T01:26:51.985Z,99.90
2022-07-25T01:29:20.113Z,99.90
2022-07-25T01:31:48.144Z,99.90
2022-07-25T01:34:16.188Z,99.90
2022-07-25T01:36:44.157Z,99.90
2022-07-25T01:39:13.569Z,99.90
2022-07-25T01:41:41.517Z,99.90
2022-07-25T01:44:10.026Z,99.90
2022-07-25T01:46:38.284Z,99.90
2022-07-25T01:49:06.518Z,99.90
2022-07-25T01:51:34.868Z,99.90
2022-07-25T01:54:03.409Z,99.90
2022-07-25T01:56:35.189Z,99.90
2022-07-25T01:59:04.334Z,99.90
2022-07-25T02:01:32.606Z,99.90
2022-07-25T02:04:00.755Z,99.90
2022-07-25T02:06:28.866Z,99.90
2022-07-25T02:09:00.224Z,99.90
2022-07-25T02:11:28.256Z,99.90
2022-07-25T02:13:57.706Z,99.90
2022-07-25T02:16:29.023Z,99.90
2022-07-25T02:18:57.689Z,99.90
2022-07-25T02:21:27.111Z,99.90
2022-07-25T02:23:55.035Z,99.90
2022-07-25T02:26:23.066Z,99.90
2022-07-25T02:28:51.756Z,99.90
2022-07-25T02:31:21.123Z,99.90
2022-07-25T02:33:49.217Z,99.90
2022-07-25T02:36:17.297Z,99.90
2022-07-25T02:38:45.456Z,99.90
2022-07-25T02:41:13.556Z,99.90
2022-07-25T02:43:41.536Z,99.90
2022-07-25T02:46:09.585Z,99.90
2022-07-25T02:48:39.139Z,99.90
2022-07-25T02:51:07.461Z,99.90
2022-07-25T02:53:56.205Z,99.90
2022-07-25T02:56:23.490Z,99.90
2022-07-25T02:58:51.761Z,99.90
2022-07-25T03:01:19.978Z,99.90
2022-07-25T03:03:49.443Z,99.90
2022-07-25T03:06:17.608Z,99.90
2022-07-25T03:08:45.591Z,99.90
2022-07-25T03:11:18.288Z,99.90
2022-07-25T03:13:46.263Z,99.90
2022-07-25T03:16:14.407Z,99.90
2022-07-25T03:18:42.412Z,99.90
2022-07-25T03:21:11.942Z,99.90
2022-07-25T03:23:40.180Z,99.90
2022-07-25T03:26:08.128Z,99.90
2022-07-25T03:28:36.555Z,99.90
2022-07-25T03:31:05.254Z,99.90
2022-07-25T03:33:33.377Z,99.90
2022-07-25T03:36:01.371Z,99.90
2022-07-25T03:38:30.815Z,99.90
2022-07-25T03:40:58.807Z,99.90
2022-07-25T03:43:26.784Z,99.90
2022-07-25T03:45:54.884Z,99.90
2022-07-25T03:48:23.043Z,99.90
2022-07-25T03:50:51.095Z,99.90
2022-07-25T03:53:19.295Z,99.90
2022-07-25T03:55:48.659Z,99.90
2022-07-25T03:58:16.810Z,99.90
2022-07-25T04:00:44.785Z,99.90
2022-07-25T04:03:14.459Z,99.90
2022-07-25T04:05:47.387Z,99.90
2022-07-25T04:08:15.846Z,99.90
2022-07-25T04:10:44.025Z,99.90
2022-07-25T04:13:13.321Z,99.90
2022-07-25T04:15:41.327Z,99.90
2022-07-25T04:18:09.373Z,99.90
2022-07-25T04:20:42.210Z,99.90
2022-07-25T04:23:10.451Z,99.90
2022-07-25T04:25:38.705Z,99.90
2022-07-25T04:28:06.708Z,99.90
2022-07-25T04:30:36.162Z,99.90
2022-07-25T04:33:04.303Z,99.90
2022-07-25T04:35:32.297Z,99.90
2022-07-25T04:38:00.252Z,99.90
2022-07-25T04:40:28.380Z,99.90
2022-07-25T04:42:56.338Z,99.90
2022-07-25T04:45:24.657Z,99.90
2022-07-25T04:47:54.791Z,99.90
2022-07-25T04:50:25.002Z,99.90
2022-07-25T04:52:53.258Z,99.90
2022-07-25T04:55:21.370Z,99.90
2022-07-25T04:57:49.520Z,99.90
2022-07-25T05:00:18.232Z,99.90
2022-07-25T05:02:46.191Z,99.90
2022-07-25T05:05:21.484Z,99.90
2022-07-25T05:07:50.201Z,99.90
2022-07-25T05:10:18.700Z,99.90
2022-07-25T05:12:46.747Z,99.90
2022-07-25T05:15:14.825Z,99.90
2022-07-25T05:17:42.992Z,99.90
2022-07-25T05:20:12.477Z,99.90
2022-07-25T05:22:42.170Z,99.90
2022-07-25T05:25:11.912Z,99.90
2022-07-25T05:27:40.466Z,99.90
2022-07-25T05:30:10.659Z,99.90
2022-07-25T05:32:38.830Z,99.90
2022-07-25T05:35:08.941Z,99.90
2022-07-25T05:37:37.842Z,99.90
2022-07-25T05:40:09.104Z,99.90
2022-07-25T05:42:37.159Z,99.90
2022-07-25T05:45:05.955Z,99.90
2022-07-25T05:47:34.324Z,99.90
2022-07-25T05:50:03.143Z,99.90
2022-07-25T05:52:31.248Z,99.90
2022-07-25T05:54:59.222Z,99.90
2022-07-25T05:57:28.962Z,99.90
2022-07-25T05:59:56.921Z,99.90
2022-07-25T06:02:25.644Z,99.90
2022-07-25T06:04:53.743Z,99.90
2022-07-25T06:07:21.831Z,99.90
2022-07-25T06:09:49.787Z,99.90
2022-07-25T06:12:17.774Z,99.90
2022-07-25T06:14:47.187Z,99.90
2022-07-25T06:17:15.515Z,99.90
2022-07-25T06:19:43.609Z,99.90
2022-07-25T06:22:11.776Z,99.90
2022-07-25T06:24:42.867Z,99.90
2022-07-25T06:27:10.928Z,99.90
2022-07-25T06:29:39.609Z,99.90
2022-07-25T06:32:09.129Z,99.90
2022-07-25T06:34:37.200Z,99.90
2022-07-25T06:37:05.200Z,99.90
2022-07-25T06:39:33.334Z,99.90
2022-07-25T06:42:03.982Z,99.90
2022-07-25T06:44:33.909Z,99.90
2022-07-25T06:47:01.951Z,99.90
2022-07-25T06:49:31.336Z,99.90
2022-07-25T06:51:59.512Z,99.90
2022-07-25T06:54:27.435Z,99.90
2022-07-25T06:56:55.520Z,99.90
2022-07-25T06:59:24.424Z,99.60
2022-07-25T07:01:52.569Z,99.20
2022-07-25T07:04:20.748Z,99.00
2022-07-25T07:06:50.081Z,98.30
2022-07-25T07:09:18.259Z,97.90
2022-07-25T07:11:46.309Z,97.40
2022-07-25T07:14:14.287Z,97.20
2022-07-25T07:16:42.488Z,97.20
2022-07-25T07:19:12.023Z,97.30
2022-07-25T07:21:40.115Z,97.00
2022-07-25T07:24:24.167Z,96.50
2022-07-25T07:26:53.600Z,96.80
2022-07-25T07:29:22.106Z,96.60
2022-07-25T07:31:50.235Z,96.50
2022-07-25T07:34:18.431Z,96.30
2022-07-25T07:36:46.469Z,96.20
2022-07-25T07:39:16.671Z,96.10
2022-07-25T07:41:44.940Z,96.00
2022-07-25T07:44:12.979Z,95.80
2022-07-25T07:46:44.400Z,95.50
2022-07-25T07:49:12.640Z,95.50
2022-07-25T07:51:40.882Z,95.30
2022-07-25T07:54:26.466Z,94.80
2022-07-25T07:56:55.972Z,94.40
2022-07-25T07:59:23.902Z,93.70
2022-07-25T08:01:58.162Z,92.80
2022-07-25T08:04:26.258Z,91.50
2022-07-25T08:06:54.407Z,90.90
2022-07-25T08:09:22.401Z,90.70
2022-07-25T08:11:50.414Z,90.40
2022-07-25T08:14:19.898Z,89.30
2022-07-25T08:16:47.913Z,87.80
2022-07-25T08:19:15.839Z,87.00
2022-07-25T08:21:43.995Z,85.40
2022-07-25T08:24:15.510Z,84.30
2022-07-25T08:26:43.585Z,83.00
2022-07-25T08:29:19.143Z,80.50
2022-07-25T08:31:49.627Z,77.40
2022-07-25T08:34:19.481Z,74.20
2022-07-25T08:36:47.634Z,71.20
2022-07-25T08:39:15.952Z,68.70
2022-07-25T08:41:44.573Z,67.70
2022-07-25T08:44:15.164Z,67.30
2022-07-25T08:46:44.331Z,66.20
2022-07-25T08:49:14.075Z,65.60
2022-07-25T08:51:42.408Z,63.50
2022-07-25T08:54:11.487Z,61.00
2022-07-25T08:56:39.504Z,57.80
2022-07-25T08:59:09.817Z,57.10
2022-07-25T09:01:40.668Z,55.70
2022-07-25T09:04:10.661Z,55.60
2022-07-25T09:06:50.359Z,54.90
2022-07-25T09:09:18.688Z,54.90
2022-07-25T09:11:46.623Z,54.70
2022-07-25T09:14:15.006Z,54.80
2022-07-25T09:16:45.081Z,55.30
2022-07-25T09:19:15.183Z,55.30
2022-07-25T09:21:46.278Z,55.60
2022-07-25T09:24:16.906Z,56.20
2022-07-25T09:26:47.014Z,55.50
2022-07-25T09:29:24.187Z,55.40
2022-07-25T09:31:53.201Z,55.30
2022-07-25T09:34:39.073Z,55.00
2022-07-25T09:37:10.627Z,54.60
2022-07-25T09:39:45.916Z,54.70
2022-07-25T09:42:24.657Z,53.90
2022-07-25T09:45:07.626Z,52.50
2022-07-25T09:47:38.255Z,49.90
2022-07-25T09:50:08.466Z,46.80
2022-07-25T09:52:39.285Z,45.70
2022-07-25T09:55:10.159Z,45.10
2022-07-25T09:57:38.658Z,43.80
2022-07-25T10:00:08.805Z,42.40
2022-07-25T10:02:47.112Z,41.80
2022-07-25T10:05:17.047Z,40.90
2022-07-25T10:07:49.067Z,41.10
2022-07-25T10:10:28.577Z,40.50
2022-07-25T10:13:05.228Z,40.40
2022-07-25T10:15:43.757Z,39.80
2022-07-25T10:18:12.235Z,39.70
2022-07-25T10:20:43.405Z,39.10
2022-07-25T10:23:27.062Z,38.00
2022-07-25T10:26:03.956Z,37.50
2022-07-25T10:28:40.437Z,37.50
2022-07-25T10:31:23.477Z,37.20
2022-07-25T10:33:56.957Z,38.10
2022-07-25T10:36:26.045Z,37.00
2022-07-25T10:38:59.178Z,37.30
2022-07-25T10:41:30.374Z,36.60
2022-07-25T10:44:02.868Z,36.20
2022-07-25T10:46:32.523Z,36.10
2022-07-25T10:49:05.757Z,36.30
2022-07-25T10:51:40.970Z,36.90
2022-07-25T10:54:19.470Z,36.50
2022-07-25T10:56:56.889Z,36.90
2022-07-25T10:59:33.959Z,37.40
2022-07-25T11:02:02.819Z,37.50
2022-07-25T11:04:31.276Z,37.10
2022-07-25T11:07:08.687Z,36.40
2022-07-25T11:09:38.701Z,36.20
2022-07-25T11:12:07.576Z,35.00
2022-07-25T11:14:37.620Z,34.30
2022-07-25T11:17:15.257Z,34.30
2022-07-25T11:19:44.501Z,33.30
2022-07-25T11:22:13.193Z,33.70
2022-07-25T11:24:43.912Z,35.00
2022-07-25T11:27:13.476Z,36.00
2022-07-25T11:29:42.560Z,36.80
2022-07-25T11:32:12.652Z,38.10
2022-07-25T11:34:43.558Z,38.20
2022-07-25T11:37:14.416Z,39.00
2022-07-25T11:39:46.263Z,39.60
2022-07-25T11:42:16.539Z,40.00
2022-07-25T11:44:48.123Z,40.50
2022-07-25T11:47:27.781Z,41.60
2022-07-25T11:49:59.287Z,41.70
2022-07-25T11:52:29.944Z,41.80
2022-07-25T11:55:01.190Z,42.30
2022-07-25T11:57:30.971Z,42.00
2022-07-25T12:00:00.966Z,41.50
2022-07-25T12:02:32.209Z,41.80
2022-07-25T12:05:02.351Z,42.10
2022-07-25T12:07:41.698Z,42.40
2022-07-25T12:10:13.668Z,42.30
2022-07-25T12:12:51.178Z,41.40
2022-07-25T12:15:21.798Z,41.90
2022-07-25T12:17:50.810Z,42.10
2022-07-25T12:20:20.901Z,42.40
2022-07-25T12:22:49.627Z,42.80
2022-07-25T12:25:19.143Z,42.60
2022-07-25T12:27:47.868Z,42.80
2022-07-25T12:30:15.876Z,43.40
2022-07-25T12:32:44.120Z,43.20
2022-07-25T12:35:13.966Z,43.40
2022-07-25T12:37:43.118Z,43.50
2022-07-25T12:40:12.992Z,44.30
2022-07-25T12:42:42.743Z,44.70
2022-07-25T12:45:12.301Z,44.30
2022-07-25T12:47:40.523Z,44.70
2022-07-25T12:50:09.376Z,44.60
2022-07-25T12:52:38.395Z,45.20
2022-07-25T12:55:07.824Z,45.50
2022-07-25T12:57:44.440Z,45.30
2022-07-25T13:00:15.891Z,45.30
2022-07-25T13:02:44.355Z,45.40
2022-07-25T13:05:12.704Z,45.50
2022-07-25T13:07:41.375Z,45.90
2022-07-25T13:10:10.444Z,45.80
2022-07-25T13:12:38.626Z,45.90
2022-07-25T13:15:09.054Z,46.50
2022-07-25T13:17:37.359Z,46.40
2022-07-25T13:20:06.541Z,45.90
2022-07-25T13:22:34.642Z,45.70
2022-07-25T13:25:02.600Z,45.30
2022-07-25T13:27:30.680Z,45.10
2022-07-25T13:29:59.005Z,45.10
2022-07-25T13:32:28.521Z,45.10
2022-07-25T13:34:56.801Z,45.00
2022-07-25T13:37:24.973Z,44.70
2022-07-25T13:39:53.051Z,44.80
2022-07-25T13:42:21.008Z,45.10
2022-07-25T13:44:49.068Z,45.20
2022-07-25T13:47:17.421Z,45.10
2022-07-25T13:49:46.793Z,44.90
2022-07-25T13:52:15.112Z,44.80
2022-07-25T13:54:43.308Z,44.80
2022-07-25T13:57:11.353Z,44.70
2022-07-25T13:59:39.446Z,43.90
2022-07-25T14:02:07.576Z,44.40
2022-07-25T14:04:35.685Z,44.30
2022-07-25T14:07:05.109Z,44.70
2022-07-25T14:09:33.219Z,45.10
2022-07-25T14:12:01.165Z,44.90
2022-07-25T14:14:29.275Z,45.50
2022-07-25T14:16:58.743Z,44.90
2022-07-25T14:19:26.857Z,45.20
2022-07-25T14:21:54.803Z,44.60
2022-07-25T14:24:24.131Z,44.70
2022-07-25T14:26:54.002Z,45.00
2022-07-25T14:29:25.955Z,45.10
2022-07-25T14:31:56.997Z,45.00
2022-07-25T14:34:25.145Z,45.30
2022-07-25T14:36:53.268Z,45.30
2022-07-25T14:39:21.523Z,45.10
2022-07-25T14:41:51.328Z,45.20
2022-07-25T14:44:19.508Z,45.20
2022-07-25T14:46:49.942Z,45.50
2022-07-25T14:49:18.721Z,45.50
2022-07-25T14:51:47.774Z,45.40
2022-07-25T14:54:15.995Z,45.50
2022-07-25T14:56:46.128Z,45.70
2022-07-25T14:59:15.524Z,45.70
2022-07-25T15:01:43.606Z,45.70
2022-07-25T15:04:11.640Z,45.70
2022-07-25T15:06:39.889Z,45.20
2022-07-25T15:09:08.375Z,45.00
2022-07-25T15:11:37.271Z,44.70
2022-07-25T15:14:05.265Z,44.80
2022-07-25T15:16:34.882Z,44.90
2022-07-25T15:19:16.354Z,45.00
2022-07-25T15:21:45.826Z,45.10
2022-07-25T15:24:14.068Z,44.20
2022-07-25T15:26:42.194Z,43.30
2022-07-25T15:29:11.910Z,43.50
2022-07-25T15:31:41.886Z,43.90
2022-07-25T15:34:09.905Z,43.60
2022-07-25T15:36:37.949Z,43.20
2022-07-25T15:39:06.483Z,43.70
2022-07-25T15:41:35.080Z,43.00
2022-07-25T15:44:03.411Z,42.80
2022-07-25T15:46:32.882Z,42.90
2022-07-25T15:49:04.268Z,41.90
2022-07-25T15:51:32.578Z,40.40
2022-07-25T15:54:00.553Z,40.10
2022-07-25T15:56:30.015Z,39.50
2022-07-25T15:58:58.044Z,39.90
2022-07-25T16:01:26.341Z,40.20
2022-07-25T16:03:55.305Z,40.10
2022-07-25T16:06:24.785Z,40.50
2022-07-25T16:08:53.305Z,41.50
2022-07-25T16:11:21.316Z,40.50
2022-07-25T16:13:49.282Z,41.10
2022-07-25T16:16:17.417Z,41.40
2022-07-25T16:18:45.402Z,41.90
2022-07-25T16:21:13.527Z,42.10
2022-07-25T16:23:45.470Z,42.50
2022-07-25T16:26:13.863Z,42.90
2022-07-25T16:28:41.973Z,43.00
2022-07-25T16:31:10.195Z,43.40
2022-07-25T16:33:38.415Z,44.10
2022-07-25T16:36:07.424Z,44.40
2022-07-25T16:38:35.580Z,44.60
2022-07-25T16:41:04.964Z,44.60
2022-07-25T16:43:33.167Z,44.60
2022-07-25T16:46:02.191Z,44.90
2022-07-25T16:48:30.665Z,45.40
2022-07-25T16:50:59.024Z,45.50
2022-07-25T16:53:27.391Z,45.80
2022-07-25T16:55:55.629Z,46.30
2022-07-25T16:58:25.559Z,46.80
2022-07-25T17:00:53.584Z,47.40
2022-07-25T17:03:22.014Z,47.50
2022-07-25T17:05:51.617Z,47.90
2022-07-25T17:08:19.866Z,48.10
2022-07-25T17:10:47.799Z,48.20
2022-07-25T17:13:15.783Z,48.40
2022-07-25T17:15:45.760Z,48.40
2022-07-25T17:18:14.197Z,48.60
2022-07-25T17:20:42.329Z,48.80
2022-07-25T17:23:11.221Z,49.30
2022-07-25T17:25:41.210Z,49.40
2022-07-25T17:28:09.697Z,49.70
2022-07-25T17:30:37.946Z,49.90
2022-07-25T17:33:07.444Z,50.00
2022-07-25T17:35:36.577Z,50.20
2022-07-25T17:38:04.850Z,50.30
2022-07-25T17:40:33.086Z,50.40
2022-07-25T17:43:01.427Z,50.40
2022-07-25T17:45:29.670Z,50.50
2022-07-25T17:47:57.862Z,50.70
2022-07-25T17:50:29.614Z,50.70
2022-07-25T17:52:59.692Z,50.90
2022-07-25T17:55:28.811Z,51.10
2022-07-25T17:57:59.501Z,51.10
2022-07-25T18:00:28.304Z,51.10
2022-07-25T18:02:56.636Z,51.30
2022-07-25T18:05:26.815Z,51.40
2022-07-25T18:07:55.218Z,51.30
2022-07-25T18:10:23.501Z,51.70
2022-07-25T18:12:51.766Z,51.90
2022-07-25T18:15:20.522Z,51.20
2022-07-25T18:17:49.402Z,51.30
2022-07-25T18:20:17.942Z,52.20
2022-07-25T18:22:47.410Z,53.40
2022-07-25T18:25:15.884Z,53.80
2022-07-25T18:27:45.293Z,54.10
2022-07-25T18:30:15.080Z,54.10
2022-07-25T18:32:43.640Z,54.40
2022-07-25T18:35:12.153Z,54.40
2022-07-25T18:37:40.334Z,55.20
2022-07-25T18:40:11.025Z,55.30
2022-07-25T18:42:39.263Z,55.40
2022-07-25T18:45:08.697Z,55.70
2022-07-25T18:47:37.600Z,56.10
2022-07-25T18:50:07.104Z,56.20
2022-07-25T18:52:36.179Z,56.30
2022-07-25T18:55:05.573Z,56.60
2022-07-25T18:57:35.478Z,57.00
2022-07-25T19:00:04.439Z,57.10
2022-07-25T19:02:32.661Z,57.70
2022-07-25T19:05:00.641Z,57.90
2022-07-25T19:07:30.153Z,58.50
2022-07-25T19:09:58.427Z,58.10
2022-07-25T19:12:27.271Z,58.50
2022-07-25T19:14:56.811Z,58.50
2022-07-25T19:17:25.064Z,58.40
2022-07-25T19:19:53.313Z,58.90
2022-07-25T19:22:21.728Z,59.40
2022-07-25T19:24:49.894Z,59.60
2022-07-25T19:27:18.305Z,59.70
2022-07-25T19:29:46.480Z,60.20
2022-07-25T19:32:16.244Z,60.30
2022-07-25T19:34:46.446Z,60.30
2022-07-25T19:37:14.459Z,60.60
2022-07-25T19:39:42.478Z,60.80
2022-07-25T19:42:12.360Z,61.20
2022-07-25T19:44:40.621Z,61.50
2022-07-25T19:47:11.644Z,61.10
2022-07-25T19:49:42.711Z,61.30
2022-07-25T19:52:11.878Z,61.90
2022-07-25T19:54:40.533Z,61.70
2022-07-25T19:57:08.524Z,62.00
2022-07-25T19:59:36.691Z,62.40
2022-07-25T20:02:06.273Z,62.40
2022-07-25T20:04:34.527Z,62.80
2022-07-25T20:07:04.465Z,63.10
2022-07-25T20:09:33.609Z,63.20
2022-07-25T20:12:02.797Z,64.30
2022-07-25T20:14:33.925Z,63.90
2022-07-25T20:17:03.078Z,64.50
2022-07-25T20:19:31.159Z,66.10
2022-07-25T20:22:00.911Z,65.90
2022-07-25T20:24:30.579Z,67.10
2022-07-25T20:26:58.740Z,68.90
2022-07-25T20:29:26.838Z,69.30
2022-07-25T20:31:54.955Z,72.80
2022-07-25T20:34:23.048Z,72.30
2022-07-25T20:36:51.004Z,73.00
2022-07-25T20:39:19.231Z,73.70
2022-07-25T20:41:48.572Z,75.30
2022-07-25T20:44:16.611Z,78.60
2022-07-25T20:46:44.598Z,81.40
2022-07-25T20:49:13.644Z,85.00
2022-07-25T20:51:42.028Z,87.90
2022-07-25T20:54:10.416Z,90.70
2022-07-25T20:56:38.681Z,91.70
2022-07-25T20:59:08.517Z,93.00
2022-07-25T21:01:37.677Z,94.50
2022-07-25T21:04:07.849Z,95.70
2022-07-25T21:06:36.890Z,96.50
2022-07-25T21:09:06.279Z,97.30
2022-07-25T21:11:35.944Z,96.70
2022-07-25T21:14:04.835Z,97.90
2022-07-25T21:16:34.889Z,98.70
2022-07-25T21:19:03.042Z,99.90
2022-07-25T21:21:31.793Z,99.90
2022-07-25T21:23:59.733Z,99.90
2022-07-25T21:26:27.702Z,99.90
2022-07-25T21:28:55.772Z,99.90
2022-07-25T21:31:23.914Z,99.90
2022-07-25T21:33:53.382Z,99.90
2022-07-25T21:36:21.318Z,99.90
2022-07-25T21:38:49.289Z,99.90
2022-07-25T21:41:17.529Z,99.90
2022-07-25T21:43:45.550Z,99.90
2022-07-25T21:46:13.921Z,99.90
2022-07-25T21:48:59.317Z,99.90
2022-07-25T21:51:36.801Z,99.90
2022-07-25T21:54:09.571Z,99.90
2022-07-25T21:56:37.594Z,99.90
2022-07-25T21:59:06.845Z,99.90
2022-07-25T22:01:35.674Z,99.90
2022-07-25T22:04:03.794Z,99.90
2022-07-25T22:06:33.347Z,99.90
2022-07-25T22:09:01.536Z,99.90
2022-07-25T22:11:42.880Z,99.90
2022-07-25T22:14:14.553Z,99.90
2022-07-25T22:16:42.765Z,99.90
2022-07-25T22:19:11.433Z,99.90
2022-07-25T22:21:42.167Z,99.90
2022-07-25T22:24:10.892Z,99.90
2022-07-25T22:26:39.014Z,99.90
2022-07-25T22:29:07.413Z,99.90
2022-07-25T22:31:35.856Z,99.90
2022-07-25T22:34:04.067Z,99.90
2022-07-25T22:36:32.143Z,99.90
2022-07-25T22:39:01.561Z,99.90
2022-07-25T22:41:29.912Z,99.90
2022-07-25T22:43:59.844Z,99.90
2022-07-25T22:46:29.400Z,99.90
2022-07-25T22:48:58.367Z,99.90
2022-07-25T22:51:27.248Z,99.90
2022-07-25T22:53:55.208Z,99.90
2022-07-25T22:56:25.457Z,99.90
2022-07-25T22:58:53.557Z,99.90
2022-07-25T23:01:21.830Z,99.90
2022-07-25T23:03:51.163Z,99.90
2022-07-25T23:06:20.323Z,99.90
2022-07-25T23:08:48.339Z,99.90
2022-07-25T23:11:16.447Z,99.90
2022-07-25T23:13:45.824Z,99.90
2022-07-25T23:16:13.962Z,99.90
2022-07-25T23:18:42.056Z,99.90
2022-07-25T23:21:16.995Z,99.90
2022-07-25T23:23:49.761Z,99.90
2022-07-25T23:26:18.252Z,99.90
2022-07-25T23:28:47.750Z,99.90
2022-07-25T23:31:16.161Z,99.90
2022-07-25T23:33:44.436Z,99.90
2022-07-25T23:36:12.406Z,99.90
2022-07-25T23:38:40.539Z,99.90
2022-07-25T23:41:08.589Z,99.90
2022-07-25T23:43:56.060Z,99.90
2022-07-25T23:46:27.750Z,99.90
2022-07-25T23:48:58.109Z,99.90
2022-07-25T23:51:26.584Z,99.90
2022-07-25T23:53:54.595Z,99.90
2022-07-25T23:56:22.775Z,99.90
2022-07-25T23:58:51.128Z,99.90
